Terminal Aerodrome Forecast
Issued by NWS Green Bay, WI

Home | Current Version | Previous Version | Text Only | Print | Product List | Glossary Off
Versions: 1 2 3 4 5 6 7 8 9 10 11 12 13 14 15 16 17 18 19 20 21 22 23 24 25 26 27 28 29 30 31 32 33

000
FTUS43 KGRB 180800 AAA
TAFGRB
TAF AMD
KGRB 180858Z 1809/1906 33006KT P6SM BKN025
     FM181300 35005KT P6SM SKC
     FM181500 34007KT P6SM SCT040 BKN120
     FM182100 03009G15KT P6SM SCT060 BKN100
     FM190100 08006KT P6SM SCT120=

USA.gov is the U.S. government's official web portal to all federal, state and local government web resources and services.